Data for 07/08/2007

Time Sea-Level Adjusted Pressure Absolute Pressure Temperature Relative Humidity Dew Point   
(mb) (inHg) (mb) (inHg) (C) (F) (%) (C) (F)
00:05 1019 30.09 848 25.04 17 62.6 69 11.4 52.6
00:10 1019 30.09 848 25.04 17 62.6 69 11.3 52.3
00:15 1019 30.09 848 25.04 17.1 62.7 68 11.1 51.9
00:20 1019 30.09 848 25.04 17.1 62.7 68 11.2 52.2
00:25 1019 30.09 848 25.04 17 62.6 69 11.3 52.4
00:30 1019 30.09 848 25.04 16.9 62.4 69 11.2 52.1
00:35 1019 30.09 848 25.04 16.9 62.4 69 11.2 52.2
00:40 1019 30.09 848 25.04 16.8 62.2 69 11.2 52.1
00:45 1019 30.09 848 25.04 16.8 62.2 69 11.1 52
00:50 1019 30.09 848 25.04 16.8 62.3 68 11 51.8
00:55 1019 30.09 848 25.04 16.8 62.2 70 11.3 52.3
01:00 1019 30.09 848 25.04 16.8 62.2 70 11.3 52.4
01:05 1019 30.09 848 25.04 16.8 62.2 70 11.4 52.5
01:10 1019 30.09 848 25.04 16.8 62.2 71 11.6 52.9
01:15 1019 30.09 848 25.04 16.7 62.1 72 11.6 52.9
01:20 1019 30.09 848 25.04 16.7 62 72 11.6 52.8
01:25 1019 30.09 848 25.04 16.5 61.7 74 11.8 53.3
01:30 1019 30.09 848 25.04 16 60.7 76 11.8 53.2
01:35 1019 30.09 848 25.04 15.7 60.3 76 11.5 52.6
01:40 1019 30.09 848 25.04 15.5 59.9 78 11.8 53.2
01:45 1019 30.09 848 25.04 15.2 59.3 77 11.3 52.3
01:50 1019 30.09 848 25.04 15.4 59.6 75 11.1 51.9
01:55 1019 30.09 848 25.04 15.5 60 73 10.9 51.5
02:00 1019 30.09 848 25.04 15.5 59.9 73 10.7 51.3
02:05 1019 30.09 848 25.04 15.1 59.3 75 10.8 51.4
02:10 1019 30.09 848 25.04 14.9 58.7 76 10.6 51.2
02:15 1019 30.09 848 25.04 14.7 58.5 73 10 50
02:20 1019 30.09 848 25.04 14.7 58.4 72 9.7 49.5
02:25 1019 30.09 848 25.04 14.9 58.8 70 9.5 49.1
02:30 1019 30.09 848 25.04 15 59 69 9.5 49.1
02:35 1019 30.09 848 25.04 14.9 58.8 70 9.6 49.2
02:40 1019 30.09 848 25.04 14.8 58.7 70 9.5 49.1
02:45 1019 30.09 848 25.04 14.9 58.8 69 9.4 48.9
02:50 1019 30.09 848 25.04 14.9 58.8 71 9.7 49.5
02:55 1019 30.09 848 25.04 14.3 57.8 75 10 50
03:00 1019 30.09 848 25.04 13.6 56.5 77 9.7 49.5
03:05 1019 30.09 848 25.04 13.6 56.4 77 9.7 49.4
03:10 1019 30.09 848 25.04 13.6 56.5 78 9.8 49.7
03:15 1019 30.09 848 25.04 13.6 56.5 77 9.7 49.4
03:20 1018 30.06 848 25.04 13.6 56.4 78 9.8 49.6
03:25 1018 30.06 848 25.04 13.4 56.1 80 10 50
03:30 1018 30.06 848 25.04 13.2 55.8 81 10 50.1
03:35 1018 30.06 848 25.04 13.2 55.7 79 9.7 49.4
03:40 1018 30.06 848 25.04 13.1 55.6 80 9.7 49.5
03:45 1018 30.06 848 25.04 13.2 55.7 79 9.7 49.4
03:50 1018 30.06 848 25.04 13.3 56 78 9.7 49.4
03:55 1018 30.06 848 25.04 13.6 56.4 77 9.6 49.3
04:00 1018 30.06 847 25.01 13.8 56.9 75 9.6 49.3
04:05 1018 30.06 847 25.01 13.7 56.7 75 9.5 49.1
04:10 1018 30.06 847 25.01 13.5 56.2 75 9.2 48.6
04:15 1018 30.06 848 25.04 13.3 55.9 76 9.1 48.4
04:20 1018 30.06 848 25.04 13 55.4 77 9 48.2
04:25 1018 30.06 847 25.01 13.1 55.6 77 9.2 48.6
04:30 1018 30.06 847 25.01 13.1 55.6 78 9.4 48.9
04:35 1018 30.06 847 25.01 13 55.3 79 9.5 49.1
04:40 1018 30.06 847 25.01 12.7 54.9 81 9.5 49.1
04:45 1018 30.06 848 25.04 12.7 54.8 80 9.4 48.9
04:50 1018 30.06 848 25.04 12.7 54.8 78 9 48.3
04:55 1018 30.06 848 25.04 12.6 54.8 78 8.9 48.1
05:00 1018 30.06 848 25.04 12.6 54.7 78 9 48.1
05:05 1018 30.06 848 25.04 12.5 54.6 80 9.1 48.5
05:10 1018 30.06 848 25.04 12.6 54.6 79 9 48.2
05:15 1019 30.09 848 25.04 12.9 55.2 76 8.8 47.9
05:20 1019 30.09 848 25.04 13.2 55.8 74 8.7 47.6
05:25 1019 30.09 848 25.04 13.2 55.8 74 8.7 47.7
05:30 1019 30.09 848 25.04 13.5 56.3 71 8.4 47.2
05:35 1019 30.09 848 25.04 13.5 56.3 74 8.9 48.1
05:40 1019 30.09 848 25.04 13 55.4 75 8.7 47.7
05:45 1019 30.09 848 25.04 12.8 55 76 8.7 47.7
05:50 1019 30.09 848 25.04 12.8 55 75 8.5 47.4
05:55 1019 30.09 848 25.04 13.5 56.4 71 8.4 47.1
06:00 1019 30.09 848 25.04 13.8 56.8 71 8.7 47.6
06:05 1019 30.09 848 25.04 13.8 56.8 69 8.4 47.1
06:10 1019 30.09 848 25.04 13.5 56.3 73 8.8 47.9
06:15 1019 30.09 848 25.04 13 55.4 75 8.7 47.6
06:20 1019 30.09 848 25.04 12.8 55 75 8.6 47.4
06:25 1019 30.09 848 25.04 12.7 54.9 76 8.7 47.6
06:30 1019 30.09 848 25.04 12.8 55.1 75 8.6 47.4
06:35 1019 30.09 848 25.04 12.8 55 77 8.8 47.8
06:40 1019 30.09 848 25.04 12.6 54.7 78 8.9 48
06:45 1019 30.09 848 25.04 12.7 54.9 76 8.7 47.6
06:50 1019 30.09 848 25.04 13 55.5 75 8.8 47.8
06:55 1019 30.09 848 25.04 13.4 56 74 8.8 47.9
07:00 1019 30.09 848 25.04 13.6 56.5 73 9 48.2
07:05 1019 30.09 848 25.04 14 57.1 72 9 48.2
07:10 1019 30.09 848 25.04 14.4 57.8 70 8.9 48
07:15 1019 30.09 848 25.04 14.8 58.6 69 9.2 48.6
07:20 1019 30.09 849 25.07 15.1 59.2 66 8.9 48.1
07:25 1019 30.09 849 25.07 15.4 59.7 67 9.3 48.8
07:30 1019 30.09 849 25.07 15.9 60.6 65 9.3 48.7
07:35 1019 30.09 849 25.07 16.1 61 65 9.7 49.4
07:40 1019 30.09 849 25.07 16.2 61.1 65 9.7 49.4
07:45 1019 30.09 849 25.07 15.8 60.4 66 9.6 49.3
07:50 1019 30.09 849 25.07 15.6 60 68 9.7 49.4
07:55 1020 30.12 849 25.07 15.6 60.1 68 9.9 49.8
08:00 1020 30.12 849 25.07 15.3 59.6 70 10 50.1
08:05 1019 30.09 849 25.07 15.2 59.4 71 10.1 50.2
08:10 1020 30.12 849 25.07 15.4 59.6 73 10.5 51
08:15 1020 30.12 849 25.07 15.2 59.4 70 9.9 49.9
08:20 1020 30.12 849 25.07 15.7 60.2 67 9.7 49.4
08:25 1020 30.12 849 25.07 16.4 61.4 66 10 49.9
08:30 1020 30.12 849 25.07 16.5 61.6 67 10.4 50.7
08:35 1020 30.12 849 25.07 16.9 62.5 65 10.3 50.6
08:40 1020 30.12 849 25.07 17.5 63.5 62 10.2 50.3
08:45 1020 30.12 849 25.07 18.1 64.5 60 10.3 50.5
08:50 1020 30.12 849 25.07 18.4 65.1 59 10.4 50.7
08:55 1020 30.12 849 25.07 18.9 66 55 9.7 49.5
09:00 1020 30.12 849 25.07 19.2 66.6 57 10.6 51.1
09:05 1020 30.12 849 25.07 19.8 67.6 55 10.5 50.8
09:10 1020 30.12 849 25.07 20.3 68.6 53 10.7 51.3
09:15 1020 30.12 849 25.07 20.3 68.6 51 10.1 50.2
09:20 1020 30.12 849 25.07 20.4 68.8 52 10.5 50.9
09:25 1020 30.12 849 25.07 20.6 69 53 10.7 51.3
09:30 1020 30.12 849 25.07 20.3 68.5 52 10.2 50.3
09:35 1020 30.12 849 25.07 20.8 69.5 50 10.1 50.2
09:40 1020 30.12 849 25.07 21 69.9 48 9.9 49.8
09:45 1020 30.12 849 25.07 21.5 70.8 47 9.8 49.7
09:50 1020 30.12 849 25.07 21.6 70.8 47 10.1 50.1
09:55 1020 30.12 849 25.07 21.9 71.4 46 10 50
10:00 1020 30.12 849 25.07 22 71.6 46 10.2 50.3
10:05 1020 30.12 849 25.07 21.6 70.9 49 10.5 50.8
10:10 1020 30.12 849 25.07 21.4 70.5 50 10.6 51.1
10:15 1020 30.12 849 25.07 21.6 70.9 48 10.3 50.6
10:20 1020 30.12 849 25.07 22.6 72.6 45 10.2 50.3
10:25 1020 30.12 849 25.07 23.2 73.8 43 10 50
10:30 1020 30.12 849 25.07 23.4 74.1 43 10.2 50.4
10:35 1020 30.12 849 25.07 23.8 74.9 40 9.4 49
10:40 1020 30.12 849 25.07 24.3 75.7 40 10.1 50.2
10:45 1020 30.12 849 25.07 24.2 75.6 40 9.8 49.7
10:50 1020 30.12 849 25.07 23.7 74.6 40 9.5 49.1
10:55 1020 30.12 849 25.07 24.3 75.8 40 10.1 50.3
11:00 1019 30.09 849 25.07 24.4 75.8 38 9.4 48.8
11:05 1019 30.09 849 25.07 24.5 76.1 40 10.3 50.5
11:10 1019 30.09 849 25.07 24.4 75.9 37 8.9 48
11:15 1019 30.09 849 25.07 24.4 75.9 36 8.4 47.1
11:20 1019 30.09 849 25.07 24.4 75.9 37 8.9 48.1
11:25 1019 30.09 849 25.07 25.2 77.4 35 8.9 48
11:30 1019 30.09 849 25.07 25.1 77.2 34 8.6 47.4
11:35 1019 30.09 849 25.07 24.6 76.3 34 8.1 46.6
11:40 1019 30.09 848 25.04 25.4 77.6 38 10.1 50.1
11:45 1019 30.09 848 25.04 25.5 77.9 35 9.1 48.3
11:50 1019 30.09 848 25.04 25.7 78.2 33 8.4 47.1
11:55 1019 30.09 848 25.04 25.1 77.2 34 8.5 47.3
12:00 1019 30.09 848 25.04 25 76.9 35 8.5 47.3
12:05 1019 30.09 848 25.04 25.4 77.7 35 8.8 47.9
12:10 1019 30.09 848 25.04 26 78.7 32 8.2 46.8
12:15 1019 30.09 848 25.04 26.5 79.8 30 8 46.5
12:20 1019 30.09 848 25.04 26.6 79.9 32 8.8 47.8
12:25 1019 30.09 848 25.04 25.4 77.7 35 9.1 48.4
12:30 1019 30.09 848 25.04 25 77.1 34 8.3 47
12:35 1019 30.09 848 25.04 25.6 78 32 8.1 46.6
12:40 1019 30.09 848 25.04 26.3 79.3 31 8.1 46.6
12:45 1019 30.09 848 25.04 27.1 80.8 30 8.5 47.4
12:50 1019 30.09 848 25.04 27.1 80.8 31 8.6 47.6
12:55 1019 30.09 848 25.04 27.1 80.9 29 8 46.5
13:00 1019 30.09 848 25.04 26.8 80.3 30 7.9 46.3
13:05 1019 30.09 848 25.04 26 78.7 31 7.8 46
13:10 1019 30.09 848 25.04 26 78.8 29 6.9 44.5
13:15 1019 30.09 848 25.04 25.9 78.6 30 7.1 44.7
13:20 1019 30.09 848 25.04 26.3 79.4 28 6.5 43.8
13:25 1019 30.09 848 25.04 27.1 80.7 28 7.3 45.1
13:30 1019 30.09 848 25.04 26.9 80.4 27 6.5 43.7
13:35 1019 30.09 848 25.04 26.8 80.3 26 6.1 43
13:40 1019 30.09 848 25.04 26.8 80.2 27 6.6 43.8
13:45 1019 30.09 848 25.04 27.8 82 26 6.6 43.9
13:50 1019 30.09 848 25.04 27.9 82.1 25 6.1 43
13:55 1019 30.09 848 25.04 26.4 79.4 27 6.3 43.3
14:00 1018 30.06 848 25.04 26.6 79.9 26 5.8 42.4
14:05 1018 30.06 848 25.04 27.1 80.7 28 7.1 44.7
14:10 1018 30.06 848 25.04 27.5 81.5 25 6.1 42.9
14:15 1018 30.06 848 25.04 27 80.6 27 6.5 43.7
14:20 1018 30.06 847 25.01 27.5 81.5 27 7.1 44.8
14:25 1018 30.06 847 25.01 27.9 82.3 25 6.3 43.4
14:30 1018 30.06 847 25.01 28 82.4 25 6.7 44
14:35 1018 30.06 847 25.01 28.8 83.8 24 6.8 44.2
14:40 1018 30.06 847 25.01 28.2 82.8 25 6.4 43.6
14:45 1018 30.06 847 25.01 27.6 81.6 26 6.4 43.6
14:50 1018 30.06 847 25.01 27.9 82.3 25 6.3 43.3
14:55 1018 30.06 847 25.01 28.1 82.6 25 6.3 43.3
15:00 1018 30.06 847 25.01 28.5 83.3 24 6.4 43.5
15:05 1018 30.06 847 25.01 27.8 82.1 26 6.8 44.3
15:10 1018 30.06 847 25.01 27.8 82.1 25 6 42.9
15:15 1018 30.06 847 25.01 27.3 81.1 26 6.2 43.1
15:20 1018 30.06 847 25.01 27.4 81.3 24 5.4 41.8
15:25 1018 30.06 847 25.01 27.5 81.5 25 6.1 43
15:30 1018 30.06 847 25.01 28.3 83 24 6 42.9
15:35 1018 30.06 847 25.01 28.4 83.2 23 5.7 42.2
15:40 1018 30.06 847 25.01 27.7 81.9 25 6.3 43.3
15:45 1017 30.03 847 25.01 27.3 81.1 25 6.1 43
15:50 1017 30.03 847 25.01 27.7 81.9 24 5.8 42.5
15:55 1017 30.03 847 25.01 27.5 81.6 25 5.9 42.5
16:00 1017 30.03 847 25.01 27.6 81.7 24 5.8 42.4
16:05 1017 30.03 847 25.01 27.8 82.1 24 6 42.8
16:10 1017 30.03 847 25.01 28.8 83.9 23 6.2 43.2
16:15 1017 30.03 846 24.98 28.3 82.9 25 6.9 44.4
16:20 1017 30.03 846 24.98 27.7 81.8 26 6.5 43.7
16:25 1017 30.03 846 24.98 28 82.4 25 6.4 43.5
16:30 1017 30.03 846 24.98 27.9 82.1 26 6.9 44.3
16:35 1017 30.03 846 24.98 27.8 82 26 6.7 44.1
16:40 1017 30.03 846 24.98 28.2 82.7 26 7 44.5
16:45 1017 30.03 846 24.98 27.7 81.8 26 6.8 44.2
16:50 1017 30.03 846 24.98 27.9 82.2 26 7.1 44.7
16:55 1017 30.03 846 24.98 27.8 82.1 26 6.8 44.2
17:00 1017 30.03 846 24.98 28.4 83.1 24 6.4 43.6
17:05 1017 30.03 846 24.98 28.6 83.5 25 6.7 44.1
17:10 1017 30.03 846 24.98 28.3 83 25 7 44.6
17:15 1017 30.03 846 24.98 28.7 83.7 24 6.7 44.1
17:20 1017 30.03 846 24.98 28.7 83.7 24 6.7 44
17:25 1017 30.03 846 24.98 28.1 82.6 26 7 44.7
17:30 1017 30.03 846 24.98 28.1 82.6 27 7.4 45.3
17:35 1017 30.03 846 24.98 27.8 82 26 6.8 44.3
17:40 1017 30.03 846 24.98 27.9 82.1 26 6.7 44
17:45 1017 30.03 846 24.98 28.6 83.6 24 6.7 44
17:50 1017 30.03 846 24.98 28.7 83.7 25 6.9 44.4
17:55 1017 30.03 846 24.98 28.7 83.6 25 7.1 44.7
18:00 1017 30.03 846 24.98 28.2 82.8 25 6.4 43.5
18:05 1017 30.03 846 24.98 28.5 83.2 26 7.2 45
18:10 1017 30.03 846 24.98 28.8 83.8 24 6.8 44.2
18:15 1017 30.03 846 24.98 28.3 82.9 26 7.3 45.2
18:20 1017 30.03 846 24.98 28.6 83.6 25 6.9 44.5
18:25 1017 30.03 846 24.98 28.9 83.9 25 7.2 44.9
18:30 1017 30.03 846 24.98 29.4 85 23 6.5 43.6
18:35 1017 30.03 846 24.98 29.6 85.4 24 7.3 45.1
18:40 1017 30.03 846 24.98 29.2 84.5 24 7.2 44.9
18:45 1017 30.03 846 24.98 28.5 83.3 26 7.5 45.6
18:50 1016 30 846 24.98 28.8 83.9 25 7.1 44.7
18:55 1016 30 846 24.98 28.8 83.9 25 7 44.6
19:00 1016 30 846 24.98 28.2 82.7 25 6.3 43.4
19:05 1016 30 846 24.98 28.4 83.1 25 6.6 43.8
19:10 1016 30 846 24.98 29.1 84.4 24 7.1 44.8
19:15 1016 30 846 24.98 28.9 84.1 24 6.5 43.6
19:20 1016 30 846 24.98 28.9 84.1 24 6.5 43.7
19:25 1016 30 846 24.98 28.8 83.8 24 6.6 43.8
19:30 1016 30 846 24.98 28.5 83.3 25 6.8 44.3
19:35 1016 30 846 24.98 28 82.4 26 7.1 44.8
19:40 1016 30 846 24.98 27.7 81.8 28 7.7 45.8
19:45 1016 30 846 24.98 27.4 81.3 27 7.1 44.8
19:50 1016 30 845 24.95 27.3 81.1 26 6.5 43.8
19:55 1016 30 845 24.95 27.3 81.2 26 6.3 43.3
20:00 1016 30 845 24.95 27.1 80.8 27 7 44.6
20:05 1016 30 846 24.98 25.9 78.7 44 13.1 55.5
20:10 1016 30 845 24.95 24.6 76.3 49 13.4 56.1
20:15 1016 30 846 24.98 23.9 75 51 13.2 55.8
20:20 1016 30 846 24.98 23.4 74.2 52 13.2 55.8
20:25 1016 30 846 24.98 23.2 73.7 53 13.3 56
20:30 1016 30 846 24.98 23 73.4 55 13.5 56.3
20:35 1016 30 846 24.98 22.8 73 55 13.4 56.1
20:40 1017 30.03 846 24.98 22.6 72.7 56 13.4 56.1
20:45 1017 30.03 846 24.98 22.4 72.3 56 13.5 56.3
20:50 1017 30.03 846 24.98 22.3 72.1 57 13.4 56.1
20:55 1017 30.03 846 24.98 22.2 71.9 57 13.3 55.9
21:00 1017 30.03 846 24.98 22 71.6 58 13.4 56
21:05 1017 30.03 846 24.98 21.8 71.3 58 13.3 56
21:10 1017 30.03 846 24.98 21.7 71.1 58 13.3 55.9
21:15 1017 30.03 846 24.98 21.6 70.9 59 13.3 55.9
21:20 1017 30.03 846 24.98 21.5 70.7 59 13.3 56
21:25 1017 30.03 846 24.98 21.4 70.5 60 13.3 55.9
21:30 1017 30.03 846 24.98 21.3 70.3 60 13.4 56.1
21:35 1017 30.03 846 24.98 21.1 70 60 13.3 55.9
21:40 1017 30.03 846 24.98 21.1 69.9 60 13.2 55.8
21:45 1017 30.03 846 24.98 21.1 70 59 13 55.5
21:50 1017 30.03 846 24.98 21.2 70.1 60 13.2 55.7
21:55 1017 30.03 846 24.98 21 69.9 61 13.2 55.8
22:00 1017 30.03 846 24.98 20.9 69.6 61 13.2 55.7
22:05 1017 30.03 846 24.98 20.8 69.4 61 13.2 55.7
22:10 1017 30.03 846 24.98 20.7 69.3 61 13 55.4
22:15 1017 30.03 846 24.98 20.7 69.3 61 13.1 55.6
22:20 1017 30.03 846 24.98 20.6 69 62 13.1 55.5
22:25 1017 30.03 846 24.98 20.5 68.9 62 13.1 55.6
22:30 1017 30.03 846 24.98 20.4 68.7 62 13.1 55.6
22:35 1017 30.03 847 25.01 20.3 68.6 63 13.1 55.6
22:40 1017 30.03 847 25.01 20.3 68.5 63 13.1 55.6
22:45 1017 30.03 847 25.01 20.3 68.5 63 13.1 55.6
22:50 1017 30.03 847 25.01 20.2 68.3 64 13.2 55.8
22:55 1017 30.03 847 25.01 20.1 68.1 64 13.2 55.7
23:00 1018 30.06 847 25.01 20.1 68.1 64 13.2 55.8
23:05 1017 30.03 847 25.01 20 67.9 65 13.2 55.7
23:10 1018 30.06 847 25.01 19.9 67.7 65 13.2 55.8
23:15 1018 30.06 847 25.01 19.7 67.5 66 13.3 55.9
23:20 1018 30.06 847 25.01 19.7 67.4 66 13.2 55.7
23:25 1018 30.06 847 25.01 19.6 67.3 66 13.2 55.8
23:30 1018 30.06 847 25.01 19.5 67.2 66 13.2 55.8
23:35 1018 30.06 847 25.01 19.5 67 67 13.2 55.8
23:40 1018 30.06 847 25.01 19.4 66.9 67 13.3 55.9
23:45 1018 30.06 847 25.01 19.3 66.8 67 13.2 55.8
23:50 1018 30.06 847 25.01 19.3 66.7 67 13.2 55.8
23:55 1018 30.06 847 25.01 19.3 66.7 67 13.2 55.8
24:00 1018 30.06 847 25.01 19.3 66.7 68 13.2 55.8